createdAt,value
2019-02-28T00:02:27.391Z,19.77
2019-02-28T00:04:53.654Z,19.47
2019-02-28T00:07:19.839Z,18.23
2019-02-28T00:09:46.004Z,20.47
2019-02-28T00:12:13.725Z,17.83
2019-02-28T00:14:40.467Z,18.17
2019-02-28T00:17:09.134Z,23.57
2019-02-28T00:19:34.702Z,18.27
2019-02-28T00:22:00.892Z,16.70
2019-02-28T00:24:30.033Z,18.43
2019-02-28T00:26:55.268Z,16.70
2019-02-28T00:29:21.454Z,17.10
2019-02-28T00:31:49.877Z,17.07
2019-02-28T00:34:15.775Z,18.93
2019-02-28T00:36:41.971Z,28.93
2019-02-28T00:39:08.129Z,27.30
2019-02-28T00:41:34.288Z,31.47
2019-02-28T00:44:00.491Z,23.93
2019-02-28T00:46:26.670Z,21.23
2019-02-28T00:51:37.020Z,24.00
2019-02-28T00:54:03.175Z,21.33
2019-02-28T00:56:29.336Z,22.00
2019-02-28T00:58:55.522Z,22.53
2019-02-28T01:01:21.793Z,24.43
2019-02-28T01:03:47.953Z,19.03
2019-02-28T01:06:14.156Z,31.23
2019-02-28T01:08:40.335Z,23.93
2019-02-28T01:11:06.496Z,21.37
2019-02-28T01:13:32.786Z,22.93
2019-02-28T01:15:59.052Z,19.73
2019-02-28T01:18:25.301Z,18.67
2019-02-28T01:20:51.489Z,30.37
2019-02-28T01:23:17.642Z,24.90
2019-02-28T01:25:43.803Z,17.23
2019-02-28T01:28:10.054Z,18.20
2019-02-28T01:30:37.078Z,15.80
2019-02-28T01:33:04.280Z,17.13
2019-02-28T01:35:30.576Z,17.87
2019-02-28T01:37:56.743Z,27.10
2019-02-28T01:40:22.897Z,21.77
2019-02-28T01:42:54.836Z,18.67
2019-02-28T01:45:21.013Z,25.33
2019-02-28T01:47:47.154Z,24.50
2019-02-28T01:50:13.341Z,25.73
2019-02-28T01:52:44.338Z,19.13
2019-02-28T01:55:09.353Z,18.43
2019-02-28T01:57:35.557Z,20.77
2019-02-28T02:00:03.329Z,20.60
2019-02-28T02:02:29.458Z,16.67
2019-02-28T02:04:55.645Z,18.77
2019-02-28T02:07:21.988Z,17.20
2019-02-28T02:09:48.239Z,60.33
2019-02-28T02:12:14.547Z,16.40
2019-02-28T02:14:44.763Z,76.20
2019-02-28T02:17:09.117Z,127.33
2019-02-28T02:19:35.306Z,13.23
2019-02-28T02:22:01.550Z,9.63
2019-02-28T02:24:28.897Z,12.30
2019-02-28T02:26:55.281Z,23.40
2019-02-28T02:29:21.524Z,9.93
2019-02-28T02:31:47.682Z,9.97
2019-02-28T02:34:13.884Z,9.77
2019-02-28T02:36:40.144Z,7.27
2019-02-28T02:39:06.507Z,7.80
2019-02-28T02:41:33.688Z,9.30
2019-02-28T02:44:00.967Z,7.80
2019-02-28T02:46:27.105Z,8.53
2019-02-28T02:48:53.307Z,9.47
2019-02-28T02:51:19.441Z,8.40
2019-02-28T02:53:45.584Z,6.57
2019-02-28T02:56:11.765Z,8.73
2019-02-28T02:58:38.026Z,6.00
2019-02-28T03:01:04.163Z,12.60
2019-02-28T03:03:30.356Z,9.27
2019-02-28T03:05:56.502Z,6.90
2019-02-28T03:08:22.648Z,6.43
2019-02-28T03:10:51.866Z,6.30
2019-02-28T03:13:16.980Z,6.93
2019-02-28T03:15:43.143Z,8.20
2019-02-28T03:18:09.329Z,8.73
2019-02-28T03:20:35.489Z,7.93
2019-02-28T03:23:03.167Z,6.37
2019-02-28T03:25:29.845Z,7.37
2019-02-28T03:27:56.857Z,4.90
2019-02-28T03:30:31.230Z,6.20
2019-02-28T03:32:51.321Z,6.53
2019-02-28T03:35:17.493Z,7.20
2019-02-28T03:37:43.638Z,6.60
2019-02-28T03:40:11.157Z,6.33
2019-02-28T03:42:37.291Z,5.33
2019-02-28T03:45:06.745Z,10.80
2019-02-28T03:47:33.037Z,10.13
2019-02-28T03:49:59.192Z,8.23
2019-02-28T03:52:25.351Z,8.07
2019-02-28T03:54:51.650Z,8.87
2019-02-28T03:57:17.913Z,6.97
2019-02-28T03:59:44.075Z,9.37
2019-02-28T04:02:10.263Z,9.33
2019-02-28T04:04:36.516Z,8.10
2019-02-28T04:07:02.794Z,6.17
2019-02-28T04:09:29.110Z,5.63
2019-02-28T04:11:55.254Z,11.23
2019-02-28T04:14:21.415Z,14.53
2019-02-28T04:16:52.779Z,8.40
2019-02-28T04:19:21.219Z,8.53
2019-02-28T04:21:46.660Z,10.07
2019-02-28T04:24:13.833Z,6.57
2019-02-28T04:26:40.143Z,4.50
2019-02-28T04:29:06.304Z,8.17
2019-02-28T04:31:33.404Z,9.20
2019-02-28T04:33:59.555Z,14.13
2019-02-28T04:36:25.707Z,10.10
2019-02-28T04:38:52.506Z,9.40
2019-02-28T04:41:18.777Z,7.80
2019-02-28T04:43:45.065Z,7.10
2019-02-28T04:46:11.339Z,7.27
2019-02-28T04:48:37.606Z,7.03
2019-02-28T04:51:05.771Z,6.83
2019-02-28T04:53:31.965Z,5.83
2019-02-28T04:55:58.123Z,7.33
2019-02-28T04:58:25.297Z,5.90
2019-02-28T05:00:52.279Z,8.13
2019-02-28T05:03:18.544Z,8.27
2019-02-28T05:05:46.938Z,9.60
2019-02-28T05:08:13.052Z,8.50
2019-02-28T05:10:39.223Z,11.10
2019-02-28T05:13:05.383Z,15.57
2019-02-28T05:15:31.572Z,28.10
2019-02-28T05:17:58.228Z,19.00
2019-02-28T05:20:24.395Z,57.00
2019-02-28T05:22:50.585Z,27.20
2019-02-28T05:25:18.675Z,33.73
2019-02-28T05:27:44.831Z,39.17
2019-02-28T05:30:17.991Z,34.07
2019-02-28T05:32:41.410Z,35.13
2019-02-28T05:35:07.667Z,33.77
2019-02-28T05:37:33.857Z,28.60
2019-02-28T05:40:05.503Z,23.00
2019-02-28T05:42:28.077Z,21.83
2019-02-28T05:44:54.267Z,9.80
2019-02-28T05:47:20.444Z,11.70
2019-02-28T05:49:46.610Z,17.63
2019-02-28T05:52:12.789Z,28.63
2019-02-28T05:54:38.962Z,24.47
2019-02-28T05:57:08.063Z,19.37
2019-02-28T05:59:33.242Z,19.43
2019-02-28T06:01:59.390Z,21.00
2019-02-28T06:04:25.552Z,17.83
2019-02-28T06:06:54.630Z,21.13
2019-02-28T06:09:19.957Z,20.60
2019-02-28T06:11:46.174Z,18.80
2019-02-28T06:14:12.766Z,34.00
2019-02-28T06:16:39.170Z,24.20
2019-02-28T06:19:08.284Z,35.67
2019-02-28T06:21:33.607Z,30.90
2019-02-28T06:23:59.864Z,29.33
2019-02-28T06:26:26.203Z,11.40
2019-02-28T06:28:52.395Z,25.57
2019-02-28T06:31:18.558Z,5.20
2019-02-28T06:33:44.807Z,16.30
2019-02-28T06:36:11.161Z,12.40
2019-02-28T06:38:38.846Z,8.00
2019-02-28T06:41:07.612Z,12.03
2019-02-28T06:43:33.227Z,11.03
2019-02-28T06:45:59.430Z,13.17
2019-02-28T06:48:26.717Z,6.53
2019-02-28T06:50:53.039Z,19.40
2019-02-28T06:53:19.289Z,13.27
2019-02-28T06:55:47.976Z,7.63
2019-02-28T06:58:14.168Z,13.87
2019-02-28T07:00:40.348Z,12.13
2019-02-28T07:03:06.581Z,10.90
2019-02-28T07:05:32.776Z,11.47
2019-02-28T07:07:59.035Z,11.93
2019-02-28T07:10:25.196Z,10.50
2019-02-28T07:12:51.502Z,9.77
2019-02-28T07:15:23.347Z,6.47
2019-02-28T07:17:47.474Z,8.90
2019-02-28T07:20:19.840Z,8.97
2019-02-28T07:22:46.107Z,9.23
2019-02-28T07:25:12.598Z,10.63
2019-02-28T07:27:40.159Z,15.63
2019-02-28T07:30:19.600Z,7.23
2019-02-28T07:32:45.988Z,5.67
2019-02-28T07:35:12.211Z,11.70
2019-02-28T07:37:38.476Z,8.57
2019-02-28T07:40:15.549Z,5.37
2019-02-28T07:42:40.495Z,10.70
2019-02-28T07:45:08.954Z,4.80
2019-02-28T07:47:35.149Z,7.40
2019-02-28T07:50:01.313Z,7.07
2019-02-28T07:52:32.430Z,7.80
2019-02-28T07:54:55.902Z,8.70
2019-02-28T07:57:22.531Z,6.33
2019-02-28T07:59:48.733Z,7.60
2019-02-28T08:02:14.926Z,7.97
2019-02-28T08:04:41.092Z,11.20
2019-02-28T08:07:07.260Z,6.17
2019-02-28T08:09:33.553Z,8.00
2019-02-28T08:11:59.810Z,6.67
2019-02-28T08:14:26.043Z,4.03
2019-02-28T08:16:52.278Z,7.17
2019-02-28T08:19:18.580Z,6.17
2019-02-28T08:21:49.398Z,3.63
2019-02-28T08:24:12.978Z,6.20
2019-02-28T08:26:39.128Z,6.20
2019-02-28T08:29:07.984Z,8.10
2019-02-28T08:31:33.393Z,6.93
2019-02-28T08:33:59.575Z,6.33
2019-02-28T08:36:26.161Z,5.50
2019-02-28T08:38:52.469Z,6.33
2019-02-28T08:41:18.743Z,8.67
2019-02-28T08:43:47.865Z,9.00
2019-02-28T08:46:13.899Z,7.73
2019-02-28T08:48:40.204Z,5.37
2019-02-28T08:51:06.447Z,6.00
2019-02-28T08:53:32.626Z,9.33
2019-02-28T08:56:11.053Z,7.29
2019-02-28T08:58:38.517Z,7.97
2019-02-28T09:01:06.651Z,10.90
2019-02-28T09:03:32.977Z,7.73
2019-02-28T09:06:00.904Z,6.50
2019-02-28T09:08:27.347Z,7.23
2019-02-28T09:10:53.519Z,9.67
2019-02-28T09:13:19.821Z,5.17
2019-02-28T09:15:45.991Z,5.97
2019-02-28T09:18:12.159Z,8.43
2019-02-28T09:20:41.402Z,9.77
2019-02-28T09:23:07.458Z,7.23
2019-02-28T09:25:33.732Z,6.70
2019-02-28T09:27:59.930Z,7.90
2019-02-28T09:30:40.986Z,4.80
2019-02-28T09:33:07.207Z,7.10
2019-02-28T09:35:33.358Z,10.57
2019-02-28T09:38:00.310Z,6.10
2019-02-28T09:40:29.438Z,9.47
2019-02-28T09:42:55.457Z,7.73
2019-02-28T09:45:26.621Z,9.90
2019-02-28T09:47:52.908Z,12.63
2019-02-28T09:50:22.498Z,10.33
2019-02-28T09:52:48.330Z,14.43
2019-02-28T09:55:14.642Z,9.67
2019-02-28T09:57:40.794Z,11.13
2019-02-28T10:00:16.389Z,8.07
2019-02-28T10:02:43.921Z,11.10
2019-02-28T10:05:11.921Z,4.77
2019-02-28T10:07:38.357Z,9.37
2019-02-28T10:10:10.325Z,9.27
2019-02-28T10:12:39.418Z,7.17
2019-02-28T10:15:08.302Z,8.90
2019-02-28T10:17:34.549Z,6.93
2019-02-28T10:20:00.714Z,9.47
2019-02-28T10:22:26.909Z,8.33
2019-02-28T10:24:53.073Z,6.27
2019-02-28T10:27:19.224Z,10.40
2019-02-28T10:29:45.527Z,7.97
2019-02-28T10:32:11.786Z,8.07
2019-02-28T10:34:37.941Z,6.00
2019-02-28T10:37:04.383Z,7.67
2019-02-28T10:39:30.781Z,6.57
2019-02-28T10:41:56.962Z,8.90
2019-02-28T10:44:23.254Z,6.30
2019-02-28T10:46:50.300Z,9.23
2019-02-28T10:49:17.487Z,6.93
2019-02-28T10:51:44.682Z,10.27
2019-02-28T10:54:14.581Z,7.17
2019-02-28T10:56:39.931Z,7.47
2019-02-28T10:59:06.126Z,12.80
2019-02-28T11:01:32.277Z,5.73
2019-02-28T11:04:00.214Z,5.40
2019-02-28T11:06:28.290Z,10.67
2019-02-28T11:08:54.910Z,6.60
2019-02-28T11:11:21.073Z,6.87
2019-02-28T11:13:47.353Z,4.70
2019-02-28T11:16:13.916Z,10.77
2019-02-28T11:18:41.895Z,6.67
2019-02-28T11:21:08.895Z,8.77
2019-02-28T11:23:35.153Z,12.57
2019-02-28T11:26:01.324Z,8.83
2019-02-28T11:28:28.226Z,7.07
2019-02-28T11:30:55.782Z,8.87
2019-02-28T11:33:22.870Z,7.33
2019-02-28T11:35:49.138Z,9.07
2019-02-28T11:38:20.479Z,7.40
2019-02-28T11:40:44.649Z,7.00
2019-02-28T11:43:11.172Z,6.80
2019-02-28T11:45:40.739Z,7.60
2019-02-28T11:48:10.010Z,10.90
2019-02-28T11:50:41.007Z,9.97
2019-02-28T11:53:06.020Z,13.40
2019-02-28T11:55:32.252Z,6.50
2019-02-28T11:57:58.654Z,14.37
2019-02-28T12:00:38.521Z,8.23
2019-02-28T12:03:05.693Z,10.03
2019-02-28T12:05:32.177Z,8.13
2019-02-28T12:07:58.435Z,8.13
2019-02-28T12:10:26.919Z,4.63
2019-02-28T12:12:53.092Z,6.37
2019-02-28T12:15:28.054Z,8.87
2019-02-28T12:17:54.223Z,9.60
2019-02-28T12:20:25.885Z,7.17
2019-02-28T12:22:49.977Z,8.00
2019-02-28T12:25:20.231Z,8.37
2019-02-28T12:27:46.386Z,10.80
2019-02-28T12:30:16.086Z,8.27
2019-02-28T12:32:43.521Z,7.37
2019-02-28T12:35:10.314Z,10.50
2019-02-28T12:37:36.504Z,10.63
2019-02-28T12:40:07.361Z,7.43
2019-02-28T12:42:34.808Z,8.37
2019-02-28T12:45:01.692Z,8.73
2019-02-28T12:47:29.749Z,7.73
2019-02-28T12:49:57.256Z,5.37
2019-02-28T12:52:24.104Z,5.67
2019-02-28T12:54:50.269Z,9.03
2019-02-28T12:57:19.321Z,8.90
2019-02-28T12:59:46.056Z,8.63
2019-02-28T13:02:12.611Z,7.23
2019-02-28T13:04:38.820Z,9.50
2019-02-28T13:07:05.072Z,4.77
2019-02-28T13:09:31.232Z,5.97
2019-02-28T13:11:57.389Z,3.90
2019-02-28T13:14:23.582Z,3.13
2019-02-28T13:16:49.738Z,5.50
2019-02-28T13:19:16.470Z,4.27
2019-02-28T13:21:46.779Z,6.73
2019-02-28T13:24:12.246Z,3.20
2019-02-28T13:26:38.413Z,6.27
2019-02-28T13:29:04.679Z,5.37
2019-02-28T13:31:30.957Z,3.93
2019-02-28T13:33:57.121Z,5.47
2019-02-28T13:36:23.427Z,4.83
2019-02-28T13:38:54.453Z,7.80
2019-02-28T13:41:18.368Z,4.73
2019-02-28T13:43:45.771Z,8.47
2019-02-28T13:46:13.036Z,4.97
2019-02-28T13:48:39.391Z,7.93
2019-02-28T13:51:08.458Z,4.50
2019-02-28T13:53:33.750Z,6.60
2019-02-28T13:56:00.017Z,6.60
2019-02-28T13:58:26.306Z,5.53
2019-02-28T14:00:52.458Z,11.33
2019-02-28T14:03:18.622Z,6.17
2019-02-28T14:05:44.825Z,9.50
2019-02-28T14:08:12.290Z,9.10
2019-02-28T14:10:38.780Z,7.70
2019-02-28T14:13:05.128Z,3.43
2019-02-28T14:15:36.706Z,6.13
2019-02-28T14:18:03.573Z,6.23
2019-02-28T14:20:29.875Z,8.03
2019-02-28T14:22:56.144Z,5.23
2019-02-28T14:25:22.997Z,7.20
2019-02-28T14:27:49.194Z,4.87
2019-02-28T14:30:16.649Z,7.23
2019-02-28T14:32:44.097Z,4.57
2019-02-28T14:35:14.131Z,9.63
2019-02-28T14:37:40.291Z,6.30
2019-02-28T14:40:14.526Z,14.67
2019-02-28T14:42:40.796Z,11.57
2019-02-28T14:45:11.180Z,10.17
2019-02-28T14:47:37.455Z,4.00
2019-02-28T14:50:07.141Z,8.17
2019-02-28T14:52:35.747Z,11.80
2019-02-28T14:55:01.357Z,5.40
2019-02-28T14:57:27.576Z,8.20
2019-02-28T14:59:53.838Z,9.33
2019-02-28T15:02:19.991Z,9.53
2019-02-28T15:04:46.284Z,6.23
2019-02-28T15:07:12.561Z,9.17
2019-02-28T15:09:38.728Z,8.67
2019-02-28T15:12:05.031Z,11.00
2019-02-28T15:14:31.213Z,10.63
2019-02-28T15:16:57.383Z,5.90
2019-02-28T15:19:25.410Z,7.17
2019-02-28T15:21:51.731Z,12.10
2019-02-28T15:24:17.901Z,14.03
2019-02-28T15:26:44.234Z,11.27
2019-02-28T15:29:10.481Z,7.40
2019-02-28T15:31:36.767Z,5.80
2019-02-28T15:34:05.491Z,4.47
2019-02-28T15:36:31.040Z,9.17
2019-02-28T15:38:57.199Z,10.60
2019-02-28T15:41:23.410Z,8.70
2019-02-28T15:43:50.407Z,9.83
2019-02-28T15:46:17.816Z,6.53
2019-02-28T15:48:44.012Z,4.97
2019-02-28T15:51:10.278Z,12.53
2019-02-28T15:53:36.552Z,5.17
2019-02-28T15:56:10.556Z,6.93
2019-02-28T15:58:31.122Z,4.90
2019-02-28T16:00:57.551Z,4.77
2019-02-28T16:03:23.727Z,9.77
2019-02-28T16:05:49.889Z,4.50
2019-02-28T16:08:16.162Z,8.00
2019-02-28T16:10:52.585Z,10.70
2019-02-28T16:13:10.637Z,5.60
2019-02-28T16:15:36.908Z,7.20
2019-02-28T16:18:04.031Z,12.23
2019-02-28T16:20:31.913Z,6.53
2019-02-28T16:22:58.497Z,9.70
2019-02-28T16:25:27.314Z,9.77
2019-02-28T16:27:53.789Z,8.80
2019-02-28T16:30:20.054Z,15.37
2019-02-28T16:32:49.129Z,19.03
2019-02-28T16:35:15.476Z,8.10
2019-02-28T16:37:41.827Z,11.17
2019-02-28T16:40:14.147Z,8.20
2019-02-28T16:42:43.426Z,8.97
2019-02-28T16:45:13.884Z,12.63
2019-02-28T16:47:40.247Z,9.47
2019-02-28T16:50:09.442Z,6.00
2019-02-28T16:52:37.300Z,13.10
2019-02-28T16:55:07.422Z,4.80
2019-02-28T16:57:33.689Z,8.17
2019-02-28T16:59:59.852Z,5.57
2019-02-28T17:02:26.412Z,9.20
2019-02-28T17:04:52.976Z,9.93
2019-02-28T17:07:19.259Z,8.20
2019-02-28T17:09:45.576Z,5.00
2019-02-28T17:12:28.464Z,23.00
2019-02-28T17:14:54.764Z,52.63
2019-02-28T17:17:22.838Z,17.10
2019-02-28T17:19:49.006Z,18.63
2019-02-28T17:22:15.325Z,22.43
2019-02-28T17:24:45.873Z,9.47
2019-02-28T17:27:11.997Z,7.00
2019-02-28T17:29:40.103Z,8.83
2019-02-28T17:32:06.375Z,10.80
2019-02-28T17:34:33.075Z,19.97
2019-02-28T17:36:59.361Z,13.07
2019-02-28T17:39:25.535Z,6.63
2019-02-28T17:41:51.811Z,13.40
2019-02-28T17:44:24.591Z,15.13
2019-02-28T17:47:03.503Z,13.00
2019-02-28T17:49:45.849Z,14.53
2019-02-28T17:52:15.733Z,19.10
2019-02-28T17:54:57.289Z,24.47
2019-02-28T17:57:31.641Z,17.00
2019-02-28T18:00:01.563Z,20.07
2019-02-28T18:02:51.004Z,20.67
2019-02-28T18:05:30.466Z,24.90
2019-02-28T18:08:24.918Z,36.90
2019-02-28T18:11:11.302Z,12.37
2019-02-28T18:13:47.072Z,14.37
2019-02-28T18:16:35.293Z,20.87
2019-02-28T18:19:21.696Z,21.83
2019-02-28T18:22:00.693Z,33.27
2019-02-28T18:24:51.749Z,40.53
2019-02-28T18:27:22.572Z,15.97
2019-02-28T18:29:52.351Z,13.67
2019-02-28T18:32:18.659Z,19.47
2019-02-28T18:34:44.968Z,16.27
2019-02-28T18:37:11.889Z,31.90
2019-02-28T18:39:38.201Z,14.77
2019-02-28T18:42:04.506Z,7.93
2019-02-28T18:44:30.795Z,6.13
2019-02-28T18:46:57.050Z,6.20
2019-02-28T18:49:26.579Z,7.50
2019-02-28T18:51:52.886Z,7.60
2019-02-28T18:54:19.151Z,7.93
2019-02-28T18:56:45.435Z,8.37
2019-02-28T18:59:11.600Z,8.70
2019-02-28T19:01:37.786Z,11.77
2019-02-28T19:04:04.080Z,6.50
2019-02-28T19:06:30.261Z,5.70
2019-02-28T19:08:56.523Z,10.73
2019-02-28T19:11:22.827Z,6.63
2019-02-28T19:13:49.025Z,10.77
2019-02-28T19:16:15.547Z,9.63
2019-02-28T19:18:41.924Z,5.67
2019-02-28T19:21:08.088Z,7.12
2019-02-28T19:23:34.285Z,8.37
2019-02-28T19:26:00.585Z,8.27
2019-02-28T19:28:26.858Z,9.70
2019-02-28T19:30:53.145Z,5.67
2019-02-28T19:33:19.341Z,5.83
2019-02-28T19:35:45.627Z,8.70
2019-02-28T19:38:11.887Z,8.00
2019-02-28T19:40:38.185Z,6.17
2019-02-28T19:43:04.364Z,10.20
2019-02-28T19:45:42.744Z,7.27
2019-02-28T19:48:09.041Z,6.33
2019-02-28T19:50:35.313Z,7.27
2019-02-28T19:53:01.624Z,7.10
2019-02-28T19:55:27.945Z,4.90
2019-02-28T19:57:54.109Z,5.77
2019-02-28T20:00:20.752Z,6.80
2019-02-28T20:02:47.008Z,9.17
2019-02-28T20:05:13.863Z,4.93
2019-02-28T20:07:40.055Z,5.03
2019-02-28T20:10:09.732Z,8.77
2019-02-28T20:12:35.886Z,6.47
2019-02-28T20:15:03.308Z,8.10
2019-02-28T20:17:29.583Z,8.33
2019-02-28T20:19:55.758Z,6.67
2019-02-28T20:22:22.072Z,6.83
2019-02-28T20:24:48.343Z,5.07
2019-02-28T20:27:14.627Z,5.27
2019-02-28T20:29:40.918Z,5.90
2019-02-28T20:32:07.104Z,6.10
2019-02-28T20:34:33.364Z,5.47
2019-02-28T20:36:59.586Z,3.97
2019-02-28T20:39:25.959Z,9.13
2019-02-28T20:41:52.119Z,7.27
2019-02-28T20:44:18.337Z,5.90
2019-02-28T20:46:44.608Z,5.90
2019-02-28T20:49:10.892Z,8.70
2019-02-28T20:51:37.199Z,5.13
2019-02-28T20:54:03.480Z,7.33
2019-02-28T20:56:29.651Z,11.63
2019-02-28T20:58:55.984Z,5.67
2019-02-28T21:01:22.279Z,6.30
2019-02-28T21:03:48.540Z,6.07
2019-02-28T21:06:14.878Z,5.50
2019-02-28T21:08:41.049Z,5.33
2019-02-28T21:11:07.311Z,6.10
2019-02-28T21:13:33.617Z,9.20
2019-02-28T21:15:59.893Z,4.30
2019-02-28T21:18:26.080Z,6.23
2019-02-28T21:20:52.292Z,5.10
2019-02-28T21:23:18.568Z,7.17
2019-02-28T21:25:44.839Z,7.37
2019-02-28T21:28:11.157Z,5.10
2019-02-28T21:30:37.433Z,6.13
2019-02-28T21:33:03.624Z,4.93
2019-02-28T21:35:29.828Z,10.77
2019-02-28T21:37:56.033Z,10.40
2019-02-28T21:40:22.782Z,5.27
2019-02-28T21:42:48.971Z,5.33
2019-02-28T21:45:17.343Z,6.20
2019-02-28T21:47:43.503Z,5.67
2019-02-28T21:50:12.025Z,5.13
2019-02-28T21:52:38.315Z,7.80
2019-02-28T21:55:07.758Z,4.93
2019-02-28T21:57:33.958Z,6.77
2019-02-28T22:00:00.285Z,5.23
2019-02-28T22:02:26.618Z,11.73
2019-02-28T22:04:52.929Z,9.20
2019-02-28T22:07:19.111Z,8.10
2019-02-28T22:09:45.258Z,6.70
2019-02-28T22:12:11.678Z,9.70
2019-02-28T22:14:37.975Z,8.43
2019-02-28T22:17:04.322Z,9.67
2019-02-28T22:19:30.615Z,9.17
2019-02-28T22:21:56.920Z,8.40
2019-02-28T22:24:23.228Z,10.80
2019-02-28T22:26:49.563Z,10.23
2019-02-28T22:29:15.886Z,14.40
2019-02-28T22:31:52.979Z,6.37
2019-02-28T22:34:23.828Z,9.20
2019-02-28T22:36:50.145Z,8.00
2019-02-28T22:39:16.505Z,5.77
2019-02-28T22:41:42.776Z,7.20
2019-02-28T22:44:09.099Z,9.83
2019-02-28T22:46:35.443Z,5.63
2019-02-28T22:49:01.762Z,7.00
2019-02-28T22:51:28.079Z,7.17
2019-02-28T22:53:54.415Z,8.27
2019-02-28T22:56:21.774Z,11.63
2019-02-28T22:58:48.071Z,9.37
2019-02-28T23:01:17.992Z,5.47
2019-02-28T23:03:44.262Z,9.17
2019-02-28T23:06:10.436Z,8.77
2019-02-28T23:08:36.763Z,5.60
2019-02-28T23:11:03.541Z,5.73
2019-02-28T23:13:29.700Z,8.47
2019-02-28T23:15:56.019Z,7.13
2019-02-28T23:18:22.299Z,8.83
2019-02-28T23:20:48.578Z,4.70
2019-02-28T23:23:14.907Z,4.20
2019-02-28T23:25:41.184Z,4.90
2019-02-28T23:28:11.027Z,5.67
2019-02-28T23:31:06.975Z,5.53
2019-02-28T23:33:33.282Z,4.77
2019-02-28T23:35:59.578Z,5.07
2019-02-28T23:38:25.924Z,3.50
2019-02-28T23:40:54.895Z,5.37
2019-02-28T23:43:21.173Z,5.17
2019-02-28T23:45:47.387Z,7.30
2019-02-28T23:48:13.547Z,9.07
2019-02-28T23:50:39.819Z,9.50
2019-02-28T23:53:06.031Z,7.63
2019-02-28T23:55:32.326Z,7.90
2019-02-28T23:57:58.627Z,10.43
